PWSweather.com
Personal Weather Stations
Station Observations
FALLO12
Churchill County, Fallon, NV 89406

Churchill CountyFallon, NV 89406

Lat: 39.51, Lon: -118.7617

Elevation: 3957

Station Type: WS-2080

http://webpages.charter.net/cgvad1/

High Low Average
Temperature 92.5°F33.6°F 58.1°F14.5°F 75.2°F24.0°F
Dew Point 55.5°F13.1°F 34.2°F1.2°F 43.6°F6.4°F
Winds 12.1 mph SW19.5 mph SW Calm Calm 3.0 mph 4.8 mph
Wind Gusts 15.9 mph25.6 mph 0.7 mph1.1 mph 5.4 mph8.7 mph
Humidity 74% 14% 37%
Pressure 30.05 in1017.60 in 29.93 in1013.50 in -
Precipitation 0.00 in0.00 in - -
Hour Temp Dew Point Humidity Winds Wind Gusts Pressure Precip Precip Rate Daily Precip Total
07:19 PM 76.1°F24.5°C 50.0°F10.0°C 40% 1.6 mph W2.6 kmh W 2.2 mph3.5 kmh 29.97 in1014.9 mb 0.00 in0.0 mm 0.00 in/hr0.0 mm/hr 0.00 in0.0 mm
07:20 PM 61.3°F16.3°C 49.5°F9.7°C 65% 2.2 mph NW3.5 kmh NW 3.1 mph5.0 kmh 30.01 in1016.3 mb 0.00 in0.0 mm 0.00 in/hr0.0 mm/hr 0.00 in0.0 mm
07:30 PM 85.6°F29.8°C 43.6°F6.4°C 23% 7.6 mph NW12.2 kmh NW 15.9 mph25.6 kmh 29.95 in1014.2 mb 0.00 in0.0 mm 0.00 in/hr0.0 mm/hr 0.00 in0.0 mm
07:40 PM 84.7°F29.3°C 42.9°F6.1°C 23% 8.3 mph NW13.4 kmh NW 13.6 mph21.9 kmh 29.95 in1014.2 mb 0.00 in0.0 mm 0.00 in/hr0.0 mm/hr 0.00 in0.0 mm
07:50 PM 83.5°F28.6°C 42.9°F6.1°C 24% 9.2 mph NW14.8 kmh NW 13.6 mph21.9 kmh 29.95 in1014.2 mb 0.00 in0.0 mm 0.00 in/hr0.0 mm/hr 0.00 in0.0 mm
08:00 PM 82.0°F27.8°C 38.3°F3.5°C 21% 6.9 mph W11.1 kmh W 14.5 mph23.3 kmh 29.95 in1014.2 mb 0.00 in0.0 mm 0.00 in/hr0.0 mm/hr 0.00 in0.0 mm
08:10 PM 81.7°F27.6°C 38.0°F3.3°C 21% 1.6 mph NW2.6 kmh NW 10.7 mph17.2 kmh 29.95 in1014.2 mb 0.00 in0.0 mm 0.00 in/hr0.0 mm/hr 0.00 in0.0 mm
08:20 PM 80.8°F27.1°C 37.2°F2.9°C 21% 5.4 mph NW8.7 kmh NW 9.2 mph14.8 kmh 29.96 in1014.6 mb 0.00 in0.0 mm 0.00 in/hr0.0 mm/hr 0.00 in0.0 mm
08:30 PM 80.1°F26.7°C 37.8°F3.2°C 22% 3.1 mph NW5.0 kmh NW 9.8 mph15.8 kmh 29.96 in1014.6 mb 0.00 in0.0 mm 0.00 in/hr0.0 mm/hr 0.00 in0.0 mm
08:40 PM 79.0°F26.1°C 36.9°F2.7°C 22% 3.1 mph NW5.0 kmh NW 6.0 mph9.7 kmh 29.97 in1014.9 mb 0.00 in0.0 mm 0.00 in/hr0.0 mm/hr 0.00 in0.0 mm
08:50 PM 78.4°F25.8°C 37.6°F3.1°C 23% 3.1 mph NW5.0 kmh NW 9.8 mph15.8 kmh 29.97 in1014.9 mb 0.00 in0.0 mm 0.00 in/hr0.0 mm/hr 0.00 in0.0 mm
09:00 PM 77.7°F25.4°C 38.1°F3.4°C 24% 3.8 mph NW6.1 kmh NW 6.9 mph11.1 kmh 29.98 in1015.2 mb 0.00 in0.0 mm 0.00 in/hr0.0 mm/hr 0.00 in0.0 mm
09:10 PM 77.5°F25.3°C 36.9°F2.7°C 23% 0.7 mph NW1.1 kmh NW 6.9 mph11.1 kmh 29.98 in1015.2 mb 0.00 in0.0 mm 0.00 in/hr0.0 mm/hr 0.00 in0.0 mm
09:20 PM 76.8°F24.9°C 37.3°F2.9°C 24% 1.6 mph N2.6 kmh N 5.4 mph8.7 kmh 29.99 in1015.6 mb 0.00 in0.0 mm 0.00 in/hr0.0 mm/hr 0.00 in0.0 mm
09:30 PM 75.2°F24.0°C 38.0°F3.3°C 26% 2.2 mph NE3.5 kmh NE 5.4 mph8.7 kmh 29.99 in1015.6 mb 0.00 in0.0 mm 0.00 in/hr0.0 mm/hr 0.00 in0.0 mm
09:40 PM 73.4°F23.0°C 39.2°F4.0°C 29% 1.6 mph NE2.6 kmh NE 4.5 mph7.2 kmh 30.00 in1015.9 mb 0.00 in0.0 mm 0.00 in/hr0.0 mm/hr 0.00 in0.0 mm
09:50 PM 72.1°F22.3°C 39.9°F4.4°C 31% 1.6 mph NW2.6 kmh NW 3.8 mph6.1 kmh 29.99 in1015.6 mb 0.00 in0.0 mm 0.00 in/hr0.0 mm/hr 0.00 in0.0 mm
10:00 PM 72.0°F22.2°C 38.9°F3.8°C 30% Calm Calm 4.5 mph7.2 kmh 29.99 in1015.6 mb 0.00 in0.0 mm 0.00 in/hr0.0 mm/hr 0.00 in0.0 mm
10:10 PM 71.6°F22.0°C 37.7°F3.2°C 29% 2.2 mph N3.5 kmh N 4.5 mph7.2 kmh 30.00 in1015.9 mb 0.00 in0.0 mm 0.00 in/hr0.0 mm/hr 0.00 in0.0 mm
10:20 PM 71.4°F21.9°C 39.2°F4.0°C 31% 1.6 mph N2.6 kmh N 4.5 mph7.2 kmh 30.00 in1015.9 mb 0.00 in0.0 mm 0.00 in/hr0.0 mm/hr 0.00 in0.0 mm
10:30 PM 71.1°F21.7°C 39.7°F4.3°C 32% Calm Calm 4.5 mph7.2 kmh 30.00 in1015.9 mb 0.00 in0.0 mm 0.00 in/hr0.0 mm/hr 0.00 in0.0 mm
10:40 PM 70.5°F21.4°C 39.3°F4.1°C 32% Calm Calm 3.8 mph6.1 kmh 30.00 in1015.9 mb 0.00 in0.0 mm 0.00 in/hr0.0 mm/hr 0.00 in0.0 mm
10:50 PM 70.0°F21.1°C 38.8°F3.8°C 32% 1.6 mph N2.6 kmh N 3.1 mph5.0 kmh 30.00 in1015.9 mb 0.00 in0.0 mm 0.00 in/hr0.0 mm/hr 0.00 in0.0 mm
11:00 PM 69.6°F20.9°C 39.3°F4.1°C 33% 0.7 mph NE1.1 kmh NE 3.1 mph5.0 kmh 30.01 in1016.3 mb 0.00 in0.0 mm 0.00 in/hr0.0 mm/hr 0.00 in0.0 mm
11:10 PM 69.1°F20.6°C 39.6°F4.2°C 34% 0.7 mph NNW1.1 kmh NNW 3.1 mph5.0 kmh 30.00 in1015.9 mb 0.00 in0.0 mm 0.00 in/hr0.0 mm/hr 0.00 in0.0 mm
11:20 PM 68.7°F20.4°C 39.2°F4.0°C 34% 2.2 mph W3.5 kmh W 3.1 mph5.0 kmh 30.00 in1015.9 mb 0.00 in0.0 mm 0.00 in/hr0.0 mm/hr 0.00 in0.0 mm
11:30 PM 68.0°F20.0°C 39.4°F4.1°C 35% 0.7 mph W1.1 kmh W 3.1 mph5.0 kmh 30.01 in1016.3 mb 0.00 in0.0 mm 0.00 in/hr0.0 mm/hr 0.00 in0.0 mm
11:40 PM 67.1°F19.5°C 40.0°F4.4°C 37% 2.2 mph W3.5 kmh W 3.1 mph5.0 kmh 30.01 in1016.3 mb 0.00 in0.0 mm 0.00 in/hr0.0 mm/hr 0.00 in0.0 mm
11:50 PM 66.4°F19.1°C 40.0°F4.4°C 38% 2.2 mph W3.5 kmh W 3.8 mph6.1 kmh 30.01 in1016.3 mb 0.00 in0.0 mm 0.00 in/hr0.0 mm/hr 0.00 in0.0 mm